Time;durP1;ratioP1;P1;durP2;ratioP2;P2;SDS_P1;SDS_P2;PMS_P1;PMS_P2;Temp;Humidity;BMP_temperature;BMP_pressure;BME280_temperature;BME280_humidity;BME280_pressure;Samples;Min_cycle;Max_cycle;Signal;HPM_P1;HPM_P2
2023/08/31 00:00:44;;;;;;;2.45;1.17;;;18.30;99.30;;;;;;5075024;28;20040;-75
2023/08/31 00:03:10;;;;;;;3.33;1.52;;;18.30;99.30;;;;;;5075120;28;20058;-74
2023/08/31 00:05:41;;;;;;;3.47;1.52;;;18.20;99.30;;;;;;5075321;28;20029;-75
2023/08/31 00:08:07;;;;;;;3.10;1.10;;;18.30;99.40;;;;;;5075075;28;20484;-75
2023/08/31 00:10:36;;;;;;;3.20;1.10;;;18.30;99.40;;;;;;5074954;28;20044;-75
2023/08/31 00:13:03;;;;;;;1.77;0.80;;;18.30;99.40;;;;;;5075130;28;20028;-75
2023/08/31 00:15:29;;;;;;;7.22;0.75;;;18.30;99.50;;;;;;5075238;28;20036;-75
2023/08/31 00:17:55;;;;;;;7.28;0.70;;;18.30;99.50;;;;;;5056906;28;20060;-75
2023/08/31 00:20:21;;;;;;;11.15;0.73;;;18.30;99.50;;;;;;5074900;28;20040;-75
2023/08/31 00:22:48;;;;;;;7.20;0.73;;;18.30;99.40;;;;;;5073483;28;20041;-75
2023/08/31 00:25:13;;;;;;;4.45;0.60;;;18.30;99.40;;;;;;5075040;28;20065;-75
2023/08/31 00:27:40;;;;;;;4.00;0.77;;;18.30;99.40;;;;;;5074916;28;20036;-74
2023/08/31 00:30:08;;;;;;;5.47;0.60;;;18.30;99.30;;;;;;5074878;28;20515;-75
2023/08/31 00:32:34;;;;;;;3.55;0.60;;;18.20;99.20;;;;;;5073784;28;20383;-75
2023/08/31 00:35:00;;;;;;;10.10;0.60;;;18.20;99.20;;;;;;5056664;28;20522;-75
2023/08/31 00:37:26;;;;;;;1.73;0.65;;;18.20;99.20;;;;;;5074920;28;20056;-74
2023/08/31 00:39:52;;;;;;;2.30;0.60;;;18.20;99.20;;;;;;5074845;28;20041;-75
2023/08/31 00:42:18;;;;;;;3.05;0.80;;;18.20;99.20;;;;;;5074666;28;20036;-75
2023/08/31 00:44:46;;;;;;;5.72;0.52;;;18.20;99.20;;;;;;5074144;28;20048;-75
2023/08/31 00:47:13;;;;;;;4.65;0.75;;;18.20;99.30;;;;;;5074569;28;20056;-74
2023/08/31 00:49:40;;;;;;;1.75;0.50;;;18.20;99.30;;;;;;5074358;28;20069;-75
2023/08/31 00:52:07;;;;;;;5.03;0.77;;;18.20;99.30;;;;;;5074551;28;20029;-74
2023/08/31 00:54:34;;;;;;;6.22;1.63;;;18.20;99.20;;;;;;5074661;28;20032;-74
2023/08/31 00:57:00;;;;;;;6.28;0.70;;;18.20;99.20;;;;;;5074181;28;20111;-75
2023/08/31 00:59:26;;;;;;;4.13;0.90;;;18.20;99.20;;;;;;5071504;28;20116;-75
2023/08/31 01:02:34;;;;;;;4.95;0.90;;;18.20;99.20;;;;;;5070185;28;20033;-75
2023/08/31 01:05:08;;;;;;;4.25;1.00;;;18.20;99.20;;;;;;5042595;28;20044;-74
2023/08/31 01:07:37;;;;;;;5.25;1.08;;;18.20;99.20;;;;;;5073825;28;20029;-75
2023/08/31 01:10:30;;;;;;;7.18;0.98;;;18.10;99.20;;;;;;5072132;28;20040;-75
2023/08/31 01:13:05;;;;;;;4.68;1.00;;;18.20;99.20;;;;;;5073624;28;20024;-75
2023/08/31 01:15:32;;;;;;;7.15;1.00;;;18.10;99.20;;;;;;5073981;28;20116;-75
2023/08/31 01:18:00;;;;;;;1.70;0.90;;;18.10;99.30;;;;;;5073966;28;20032;-75
2023/08/31 01:20:36;;;;;;;3.08;1.13;;;18.10;99.30;;;;;;5073540;28;20032;-75
2023/08/31 01:23:06;;;;;;;3.00;0.93;;;18.10;99.30;;;;;;5073580;28;20042;-74
2023/08/31 01:25:33;;;;;;;2.67;1.00;;;18.10;99.30;;;;;;5073585;28;20044;-75
2023/08/31 01:27:59;;;;;;;3.63;1.08;;;18.10;99.20;;;;;;5073582;28;20021;-75
2023/08/31 01:30:29;;;;;;;3.58;0.82;;;18.10;99.20;;;;;;5073038;28;20040;-75
2023/08/31 01:32:55;;;;;;;2.78;0.68;;;18.10;99.20;;;;;;5073415;28;20480;-75
2023/08/31 01:35:21;;;;;;;2.97;0.73;;;18.10;99.20;;;;;;5073341;28;20044;-75
2023/08/31 01:38:03;;;;;;;4.38;0.75;;;18.10;99.20;;;;;;5073729;28;20029;-74
2023/08/31 01:40:44;;;;;;;3.22;0.80;;;18.10;99.20;;;;;;5073295;28;20718;-75
2023/08/31 01:43:11;;;;;;;4.80;0.90;;;18.00;99.10;;;;;;5072708;28;20123;-75
2023/08/31 01:45:39;;;;;;;3.38;0.80;;;18.10;99.10;;;;;;5073504;28;20395;-74
2023/08/31 01:48:05;;;;;;;2.08;0.70;;;18.00;99.10;;;;;;5073173;28;20039;-75
2023/08/31 01:50:31;;;;;;;3.45;0.80;;;18.00;99.10;;;;;;5073213;28;20043;-75
2023/08/31 01:52:57;;;;;;;3.72;0.85;;;18.00;99.10;;;;;;5073208;28;20024;-75
2023/08/31 01:55:23;;;;;;;3.38;0.65;;;18.00;99.10;;;;;;5073235;28;20044;-74
2023/08/31 01:57:49;;;;;;;5.22;0.70;;;18.00;99.20;;;;;;5073041;28;20078;-75
2023/08/31 02:00:17;;;;;;;4.55;0.82;;;18.00;99.20;;;;;;5073104;28;20090;-75
2023/08/31 02:02:43;;;;;;;2.45;0.68;;;18.00;99.30;;;;;;5072955;28;20392;-74
2023/08/31 02:05:09;;;;;;;7.13;0.57;;;18.00;99.20;;;;;;5072972;28;20044;-75
2023/08/31 02:07:36;;;;;;;1.50;0.70;;;18.00;99.20;;;;;;5073060;28;20428;-75
2023/08/31 02:10:02;;;;;;;1.55;0.40;;;17.90;99.20;;;;;;5072935;28;20047;-74
2023/08/31 02:12:28;;;;;;;6.13;0.57;;;18.00;99.10;;;;;;5072928;28;20028;-75
2023/08/31 02:14:53;;;;;;;2.58;0.70;;;17.90;99.10;;;;;;5073136;28;20495;-75
2023/08/31 02:17:19;;;;;;;3.42;0.70;;;18.00;99.00;;;;;;5072733;28;20056;-75
2023/08/31 02:19:45;;;;;;;0.60;0.40;;;18.00;99.00;;;;;;5072988;28;20064;-75
2023/08/31 02:22:11;;;;;;;0.90;0.47;;;17.90;99.00;;;;;;5072834;28;20064;-74
2023/08/31 02:24:37;;;;;;;4.25;0.40;;;17.90;98.70;;;;;;5072722;28;20051;-75
2023/08/31 02:27:02;;;;;;;5.45;0.47;;;17.90;98.60;;;;;;5072457;28;20024;-75
2023/08/31 02:29:28;;;;;;;1.33;0.50;;;17.90;98.50;;;;;;5072885;28;20039;-75
2023/08/31 02:31:54;;;;;;;2.00;0.40;;;17.90;98.50;;;;;;5073042;28;20059;-75
2023/08/31 02:34:20;;;;;;;4.22;0.43;;;17.80;98.30;;;;;;5072570;28;20047;-75
2023/08/31 02:36:45;;;;;;;1.60;0.45;;;17.80;98.20;;;;;;5072714;28;20028;-74
2023/08/31 02:39:12;;;;;;;2.83;0.70;;;17.80;98.20;;;;;;5072793;28;20033;-75
2023/08/31 02:41:38;;;;;;;3.00;0.50;;;17.80;98.20;;;;;;5072701;28;20115;-75
2023/08/31 02:44:04;;;;;;;3.80;0.40;;;17.80;98.10;;;;;;5072684;28;20167;-75
2023/08/31 02:46:30;;;;;;;1.52;0.60;;;17.80;98.10;;;;;;5072689;28;20037;-75
2023/08/31 02:48:56;;;;;;;1.75;0.40;;;17.70;98.10;;;;;;5072903;28;20125;-74
2023/08/31 02:51:22;;;;;;;1.35;0.60;;;17.70;98.00;;;;;;5072330;28;20025;-74
2023/08/31 02:53:48;;;;;;;5.75;0.70;;;17.70;98.00;;;;;;5072044;28;20040;-74
2023/08/31 02:56:14;;;;;;;3.17;0.68;;;17.70;98.00;;;;;;5075279;28;20044;-74
2023/08/31 02:58:40;;;;;;;3.95;0.85;;;17.60;97.90;;;;;;5076485;28;20040;-75
2023/08/31 03:01:12;;;;;;;2.58;0.80;;;17.60;97.90;;;;;;5076890;28;20029;-75
2023/08/31 03:03:39;;;;;;;3.22;0.77;;;17.60;97.90;;;;;;5075874;28;20049;-75
2023/08/31 03:06:08;;;;;;;2.67;1.05;;;17.60;97.90;;;;;;5076150;28;20064;-75
2023/08/31 03:08:33;;;;;;;4.50;1.00;;;17.60;98.00;;;;;;5076429;28;20021;-74
2023/08/31 03:10:59;;;;;;;3.13;1.10;;;17.60;98.00;;;;;;5081203;28;20040;-74
2023/08/31 03:13:25;;;;;;;2.95;1.00;;;17.60;98.00;;;;;;5092409;28;20036;-75
2023/08/31 03:15:51;;;;;;;1.83;0.70;;;17.60;98.00;;;;;;5076979;28;20024;-74
2023/08/31 03:18:17;;;;;;;2.85;0.73;;;17.60;98.00;;;;;;5096501;28;20054;-75
2023/08/31 03:20:43;;;;;;;3.95;0.77;;;17.60;98.00;;;;;;5096545;28;20029;-75
2023/08/31 03:23:09;;;;;;;2.17;0.50;;;17.50;98.00;;;;;;5096363;28;20089;-75
2023/08/31 03:25:35;;;;;;;0.70;0.47;;;17.50;98.00;;;;;;5096466;28;20067;-74
2023/08/31 03:28:01;;;;;;;2.80;0.60;;;17.50;98.00;;;;;;5096121;28;20070;-75
2023/08/31 03:30:27;;;;;;;3.83;0.52;;;17.50;98.00;;;;;;5096156;28;20043;-75
2023/08/31 03:32:53;;;;;;;3.15;0.60;;;17.50;98.30;;;;;;5096260;28;20146;-75
2023/08/31 03:35:19;;;;;;;3.95;1.15;;;17.50;98.10;;;;;;5096399;28;20070;-75
2023/08/31 03:37:47;;;;;;;11.27;1.15;;;17.50;98.10;;;;;;5096200;28;20078;-75
2023/08/31 03:40:13;;;;;;;0.93;0.50;;;17.50;98.10;;;;;;5078089;28;20490;-74
2023/08/31 03:42:39;;;;;;;2.45;0.43;;;17.50;98.10;;;;;;5096012;28;20046;-75
2023/08/31 03:45:05;;;;;;;1.98;0.70;;;17.50;98.10;;;;;;5095766;28;20058;-75
2023/08/31 03:47:31;;;;;;;3.53;0.60;;;17.50;98.10;;;;;;5077700;28;20028;-75
2023/08/31 03:49:57;;;;;;;2.97;0.80;;;17.50;98.10;;;;;;5095905;28;20032;-75
2023/08/31 03:52:23;;;;;;;6.22;0.60;;;17.50;98.00;;;;;;5095900;28;20609;-75
2023/08/31 03:54:49;;;;;;;3.45;0.95;;;17.50;97.90;;;;;;5095971;28;20078;-75
2023/08/31 03:57:15;;;;;;;3.85;0.47;;;17.50;97.90;;;;;;5095498;28;20082;-74
2023/08/31 03:59:41;;;;;;;1.80;0.50;;;17.50;97.90;;;;;;5095613;28;20032;-75
2023/08/31 04:02:06;;;;;;;6.70;0.60;;;17.40;97.80;;;;;;5095701;28;20020;-75
2023/08/31 04:04:33;;;;;;;5.00;0.60;;;17.40;97.80;;;;;;5095323;28;20425;-75
2023/08/31 04:06:59;;;;;;;2.92;0.60;;;17.40;97.80;;;;;;5095322;28;20028;-75
2023/08/31 04:09:25;;;;;;;6.93;1.30;;;17.40;97.80;;;;;;5095529;28;20036;-75
2023/08/31 04:11:51;;;;;;;1.42;0.60;;;17.40;97.80;;;;;;5095619;28;20031;-75
2023/08/31 04:14:18;;;;;;;3.58;0.70;;;17.40;97.80;;;;;;5095440;28;20039;-75
2023/08/31 04:16:45;;;;;;;1.73;0.68;;;17.40;97.80;;;;;;5077511;28;20395;-75
2023/08/31 04:19:11;;;;;;;0.65;0.50;;;17.40;97.80;;;;;;5095212;28;20032;-75
2023/08/31 04:21:38;;;;;;;2.40;0.60;;;17.40;97.80;;;;;;5095043;28;20032;-74
2023/08/31 04:24:04;;;;;;;5.35;0.70;;;17.40;97.90;;;;;;5095096;28;20493;-74
2023/08/31 04:26:30;;;;;;;2.22;0.63;;;17.40;97.90;;;;;;5094933;28;20028;-75
2023/08/31 04:28:56;;;;;;;3.10;0.80;;;17.40;97.90;;;;;;5095117;28;20039;-74
2023/08/31 04:31:22;;;;;;;3.70;0.85;;;17.40;97.90;;;;;;5094992;28;20020;-74
2023/08/31 04:33:48;;;;;;;3.05;1.15;;;17.40;98.00;;;;;;5094831;28;20039;-74
2023/08/31 04:36:14;;;;;;;4.03;0.93;;;17.40;97.90;;;;;;5094102;28;20086;-74
2023/08/31 04:38:40;;;;;;;6.50;0.98;;;17.40;97.90;;;;;;5095281;28;20054;-74
2023/08/31 04:41:05;;;;;;;1.70;0.88;;;17.40;97.90;;;;;;5095039;28;20512;-75
2023/08/31 04:43:31;;;;;;;2.25;0.90;;;17.40;97.80;;;;;;5094567;28;20086;-75
2023/08/31 04:45:57;;;;;;;2.60;1.05;;;17.40;97.80;;;;;;5094281;28;20426;-74
2023/08/31 04:48:23;;;;;;;2.20;0.82;;;17.40;97.80;;;;;;5094577;28;20036;-75
2023/08/31 04:50:49;;;;;;;2.72;0.88;;;17.40;97.70;;;;;;5094722;28;20089;-75
2023/08/31 04:53:15;;;;;;;1.48;0.85;;;17.40;97.70;;;;;;5094834;28;20032;-75
2023/08/31 04:55:40;;;;;;;3.42;0.82;;;17.40;97.60;;;;;;5094762;28;20468;-74
2023/08/31 04:58:06;;;;;;;2.10;0.63;;;17.30;97.60;;;;;;5094903;28;20032;-75
2023/08/31 05:00:32;;;;;;;4.03;0.70;;;17.40;97.60;;;;;;5094475;28;20062;-74
2023/08/31 05:02:58;;;;;;;2.92;0.65;;;17.40;97.60;;;;;;5076015;28;20032;-75
2023/08/31 05:05:24;;;;;;;4.28;0.80;;;17.40;97.60;;;;;;5094634;28;20054;-75
2023/08/31 05:07:49;;;;;;;2.65;0.80;;;17.40;97.50;;;;;;5094596;28;20111;-75
2023/08/31 05:10:16;;;;;;;3.70;0.70;;;17.40;97.40;;;;;;5094648;28;20586;-75
2023/08/31 05:12:42;;;;;;;2.35;0.90;;;17.40;97.40;;;;;;5095551;28;20499;-75
2023/08/31 05:15:09;;;;;;;2.25;0.50;;;17.30;97.30;;;;;;5076332;28;20039;-75
2023/08/31 05:17:35;;;;;;;3.38;0.60;;;17.30;97.30;;;;;;5093683;28;20385;-76
2023/08/31 05:20:01;;;;;;;2.20;0.77;;;17.40;97.40;;;;;;5094540;28;20050;-75
2023/08/31 05:22:26;;;;;;;3.20;0.73;;;17.30;97.50;;;;;;5094374;28;20028;-75
2023/08/31 05:24:52;;;;;;;1.00;0.60;;;17.30;97.50;;;;;;5094971;28;20075;-75
2023/08/31 05:27:18;;;;;;;2.53;0.70;;;17.30;97.60;;;;;;5094466;28;20129;-74
2023/08/31 05:29:43;;;;;;;4.30;1.05;;;17.30;97.70;;;;;;5094572;28;20182;-76
2023/08/31 05:32:09;;;;;;;0.85;0.60;;;17.30;97.80;;;;;;5091160;28;20028;-75
2023/08/31 05:34:37;;;;;;;6.35;0.85;;;17.30;97.80;;;;;;5090930;28;20113;-74
2023/08/31 05:37:06;;;;;;;3.20;0.70;;;17.40;97.90;;;;;;5093433;28;20423;-76
2023/08/31 05:39:32;;;;;;;5.22;0.77;;;17.40;97.90;;;;;;5094087;28;20078;-75
2023/08/31 05:41:58;;;;;;;1.67;1.13;;;17.40;97.90;;;;;;5093998;28;20121;-75
2023/08/31 05:44:24;;;;;;;2.90;0.73;;;17.40;97.90;;;;;;5093511;28;20044;-74
2023/08/31 05:46:49;;;;;;;2.28;0.73;;;17.40;97.90;;;;;;5093645;28;20506;-75
2023/08/31 05:49:15;;;;;;;4.03;0.80;;;17.40;98.00;;;;;;5093517;28;20028;-75
2023/08/31 05:51:41;;;;;;;3.08;0.77;;;17.40;98.00;;;;;;5093286;28;20119;-75
2023/08/31 05:54:11;;;;;;;2.17;1.20;;;17.40;98.00;;;;;;5093539;28;20036;-75
2023/08/31 05:56:40;;;;;;;4.28;0.70;;;17.40;98.10;;;;;;5092048;28;20036;-75
2023/08/31 05:59:09;;;;;;;2.35;0.90;;;17.50;98.20;;;;;;5092619;28;20400;-74
2023/08/31 06:01:36;;;;;;;2.95;0.88;;;17.50;98.10;;;;;;5059671;28;20506;-74
2023/08/31 06:04:03;;;;;;;2.42;0.80;;;17.50;98.10;;;;;;5063250;28;20067;-73
2023/08/31 06:06:29;;;;;;;4.00;0.80;;;17.50;98.10;;;;;;5072267;28;20056;-74
2023/08/31 06:08:56;;;;;;;2.03;0.80;;;17.50;98.30;;;;;;5072595;28;20043;-74
2023/08/31 06:11:22;;;;;;;1.33;0.77;;;17.50;98.10;;;;;;5072462;28;20028;-74
2023/08/31 06:13:48;;;;;;;1.25;0.70;;;17.60;98.10;;;;;;5072384;28;20484;-74
2023/08/31 06:16:13;;;;;;;6.05;0.70;;;17.60;97.90;;;;;;5072113;28;20111;-74
2023/08/31 06:18:39;;;;;;;4.22;0.98;;;17.60;97.70;;;;;;5070021;28;20036;-74
2023/08/31 06:21:05;;;;;;;3.97;0.70;;;17.70;97.60;;;;;;5072683;28;20464;-75
2023/08/31 06:23:31;;;;;;;0.68;0.60;;;17.70;97.60;;;;;;5072708;28;20041;-74
2023/08/31 06:25:57;;;;;;;1.33;0.60;;;17.70;97.60;;;;;;5072859;28;20115;-74
2023/08/31 06:28:23;;;;;;;4.45;0.60;;;17.80;97.40;;;;;;5072762;28;20037;-74
2023/08/31 06:30:49;;;;;;;3.03;0.80;;;17.80;97.40;;;;;;5072377;28;20037;-75
2023/08/31 06:33:15;;;;;;;2.90;0.80;;;17.80;97.40;;;;;;5071274;28;20025;-74
2023/08/31 06:35:41;;;;;;;4.65;1.00;;;17.80;97.40;;;;;;5052495;28;20488;-74
2023/08/31 06:38:07;;;;;;;0.90;0.70;;;17.80;97.40;;;;;;5071592;28;20040;-74
2023/08/31 06:40:33;;;;;;;5.65;1.20;;;17.90;97.40;;;;;;5071769;28;20115;-74
2023/08/31 06:42:59;;;;;;;3.88;0.65;;;17.90;97.40;;;;;;5053895;28;20123;-74
2023/08/31 06:45:25;;;;;;;1.83;0.60;;;17.90;97.40;;;;;;5072288;28;20067;-74
2023/08/31 06:47:51;;;;;;;3.97;0.90;;;17.90;97.50;;;;;;5072408;28;20437;-74
2023/08/31 06:50:17;;;;;;;2.22;0.80;;;17.90;97.50;;;;;;5072696;28;20029;-74
2023/08/31 06:52:43;;;;;;;4.35;0.70;;;18.00;97.50;;;;;;5072496;28;20033;-75
2023/08/31 06:55:10;;;;;;;5.80;0.68;;;18.10;97.40;;;;;;5072201;28;20389;-73
2023/08/31 06:57:37;;;;;;;4.13;0.90;;;18.10;97.20;;;;;;5072144;28;20036;-74
2023/08/31 07:00:05;;;;;;;2.42;0.70;;;18.10;97.00;;;;;;5072292;28;20078;-74
2023/08/31 07:02:31;;;;;;;2.35;1.15;;;18.20;96.90;;;;;;5072183;28;20467;-74
2023/08/31 07:04:57;;;;;;;3.92;0.80;;;18.20;96.80;;;;;;5071927;28;20135;-75
2023/08/31 07:07:23;;;;;;;0.95;0.60;;;18.30;96.80;;;;;;5072013;28;20377;-74
2023/08/31 07:09:48;;;;;;;4.15;0.80;;;18.30;96.70;;;;;;5054725;28;20116;-74
2023/08/31 07:12:14;;;;;;;2.92;0.80;;;18.30;96.50;;;;;;5072581;28;20132;-74
2023/08/31 07:14:40;;;;;;;3.20;0.68;;;18.40;96.50;;;;;;5072578;28;20040;-74
2023/08/31 07:17:06;;;;;;;2.75;0.80;;;18.40;96.40;;;;;;5072620;28;20082;-72
2023/08/31 07:19:31;;;;;;;0.60;0.50;;;18.40;96.40;;;;;;5071927;28;20393;-72
2023/08/31 07:21:57;;;;;;;10.93;1.35;;;18.40;96.40;;;;;;5072342;28;20125;-75
2023/08/31 07:24:24;;;;;;;2.30;0.75;;;18.50;96.40;;;;;;5054307;28;20049;-76
2023/08/31 07:26:50;;;;;;;1.83;0.68;;;18.50;96.40;;;;;;5072485;28;20031;-77
2023/08/31 07:29:16;;;;;;;3.60;0.60;;;18.50;96.40;;;;;;5072283;28;20485;-76
2023/08/31 07:31:42;;;;;;;2.00;0.65;;;18.60;96.30;;;;;;5072084;28;20039;-76
2023/08/31 07:34:07;;;;;;;0.80;0.60;;;18.70;96.20;;;;;;5072234;28;20056;-76
2023/08/31 07:36:33;;;;;;;3.72;0.45;;;18.80;96.20;;;;;;5072564;28;20079;-75
2023/08/31 07:38:59;;;;;;;1.65;0.52;;;18.80;96.00;;;;;;5072213;28;20132;-76
2023/08/31 07:41:25;;;;;;;1.55;0.47;;;18.90;95.80;;;;;;5073542;28;20103;-77
2023/08/31 07:43:50;;;;;;;3.63;0.60;;;18.90;95.70;;;;;;5075945;28;20139;-77
2023/08/31 07:46:17;;;;;;;1.65;0.57;;;19.00;95.80;;;;;;5075788;28;20035;-77
2023/08/31 07:48:43;;;;;;;0.70;0.60;;;19.00;95.60;;;;;;5076174;28;20033;-77
2023/08/31 07:51:09;;;;;;;1.38;0.55;;;19.10;95.50;;;;;;5075989;28;20083;-76
2023/08/31 07:53:34;;;;;;;1.25;0.70;;;19.10;95.30;;;;;;5076039;28;20029;-77
2023/08/31 07:56:00;;;;;;;1.60;1.02;;;19.20;95.30;;;;;;5074554;28;20055;-76
2023/08/31 07:58:26;;;;;;;0.80;0.40;;;19.20;95.10;;;;;;5076031;28;20036;-77
2023/08/31 08:00:56;;;;;;;1.13;0.60;;;19.30;95.00;;;;;;5075687;28;20036;-76
2023/08/31 08:03:22;;;;;;;1.95;0.60;;;19.30;95.00;;;;;;5075394;28;20106;-77
2023/08/31 08:05:48;;;;;;;0.68;0.60;;;19.40;95.10;;;;;;5075626;28;20044;-78
2023/08/31 08:08:14;;;;;;;2.47;0.80;;;19.40;95.00;;;;;;5075568;28;20039;-78
2023/08/31 08:10:39;;;;;;;3.72;0.70;;;19.50;95.20;;;;;;5056901;28;20451;-76
2023/08/31 08:13:05;;;;;;;3.95;0.55;;;19.60;95.10;;;;;;5075360;28;20158;-77
2023/08/31 08:15:31;;;;;;;3.30;0.57;;;19.60;94.80;;;;;;5075376;28;20036;-77
2023/08/31 08:17:57;;;;;;;1.65;0.60;;;19.70;94.30;;;;;;5075646;28;20025;-76
2023/08/31 08:20:23;;;;;;;2.50;0.60;;;19.70;94.00;;;;;;5075455;28;20400;-76
2023/08/31 08:22:53;;;;;;;0.60;0.60;;;19.80;93.70;;;;;;5075327;28;20033;-76
2023/08/31 08:25:22;;;;;;;2.15;0.50;;;19.80;93.50;;;;;;5075210;28;20044;-76
2023/08/31 08:27:48;;;;;;;0.40;0.40;;;19.90;93.10;;;;;;5057348;28;20088;-76
2023/08/31 08:30:15;;;;;;;1.02;0.60;;;20.00;92.10;;;;;;5075313;28;20043;-77
2023/08/31 08:32:41;;;;;;;1.27;0.50;;;20.00;92.00;;;;;;5075372;28;20067;-77
2023/08/31 08:35:08;;;;;;;0.77;0.60;;;20.10;92.00;;;;;;5075213;28;20083;-77
2023/08/31 08:37:34;;;;;;;2.45;0.60;;;20.10;92.20;;;;;;5075179;28;20040;-76
2023/08/31 08:40:00;;;;;;;2.28;0.60;;;20.20;91.90;;;;;;5074937;28;20333;-77
2023/08/31 08:42:26;;;;;;;1.70;0.73;;;20.20;91.60;;;;;;5074901;28;20032;-77
2023/08/31 08:44:51;;;;;;;2.28;0.60;;;20.30;91.50;;;;;;5074993;28;20047;-76
2023/08/31 08:47:20;;;;;;;1.92;0.80;;;20.30;91.50;;;;;;5075024;28;20032;-76
2023/08/31 08:49:48;;;;;;;0.95;0.55;;;20.40;90.90;;;;;;5074745;28;20059;-77
2023/08/31 08:52:17;;;;;;;1.02;0.50;;;20.40;91.20;;;;;;5073995;28;20556;-76
2023/08/31 08:54:44;;;;;;;1.27;0.57;;;20.50;91.50;;;;;;5073868;28;20635;-74
2023/08/31 08:57:10;;;;;;;2.28;0.60;;;20.50;91.00;;;;;;5074603;28;20103;-76
2023/08/31 08:59:36;;;;;;;0.90;0.60;;;20.60;90.90;;;;;;5074663;28;20132;-76
2023/08/31 09:02:02;;;;;;;5.30;1.30;;;20.70;90.90;;;;;;5074700;28;20032;-76
2023/08/31 09:04:31;;;;;;;3.25;1.10;;;20.80;91.00;;;;;;5074155;28;20041;-75
2023/08/31 09:06:56;;;;;;;3.58;1.40;;;20.80;91.80;;;;;;5056418;28;20039;-76
2023/08/31 09:09:22;;;;;;;1.67;0.90;;;20.80;91.60;;;;;;5074389;28;20485;-76
2023/08/31 09:11:48;;;;;;;7.20;1.77;;;20.90;90.90;;;;;;5074404;28;20036;-76
2023/08/31 09:14:18;;;;;;;1.95;0.70;;;21.00;91.20;;;;;;5074071;28;20032;-74
2023/08/31 09:16:49;;;;;;;1.65;0.80;;;21.00;90.70;;;;;;5074074;28;20039;-76
2023/08/31 09:19:19;;;;;;;1.38;0.68;;;21.10;90.50;;;;;;5074146;28;20059;-76
2023/08/31 09:21:47;;;;;;;1.17;0.60;;;21.10;90.20;;;;;;5074272;28;20101;-76
2023/08/31 09:24:13;;;;;;;2.25;0.90;;;21.20;87.40;;;;;;5074197;28;20051;-76
2023/08/31 09:26:43;;;;;;;2.13;1.20;;;21.20;87.80;;;;;;5074127;28;20029;-76
2023/08/31 09:29:09;;;;;;;1.05;0.55;;;21.20;88.70;;;;;;5073871;28;20067;-75
2023/08/31 09:31:34;;;;;;;1.42;0.70;;;21.20;88.80;;;;;;5074124;28;20053;-76
2023/08/31 09:34:01;;;;;;;2.17;0.60;;;21.20;88.50;;;;;;5073922;28;20071;-74
2023/08/31 09:36:28;;;;;;;1.23;0.70;;;21.20;86.70;;;;;;5073664;28;20032;-75
2023/08/31 09:38:58;;;;;;;4.03;0.75;;;21.20;87.30;;;;;;5074005;28;20044;-75
2023/08/31 09:41:24;;;;;;;1.17;0.65;;;21.20;87.30;;;;;;5073916;28;20033;-76
2023/08/31 09:43:50;;;;;;;1.63;0.70;;;21.30;87.50;;;;;;5073676;28;20086;-76
2023/08/31 09:46:16;;;;;;;1.02;0.63;;;21.30;87.70;;;;;;5072457;28;20032;-77
2023/08/31 09:48:42;;;;;;;1.80;0.75;;;21.40;85.90;;;;;;5073595;28;20517;-76
2023/08/31 09:51:10;;;;;;;0.73;0.57;;;21.50;86.40;;;;;;5073670;28;20032;-76
2023/08/31 09:53:37;;;;;;;1.25;0.52;;;21.60;86.10;;;;;;5073744;28;20037;-76
2023/08/31 09:56:05;;;;;;;1.50;0.70;;;21.70;85.10;;;;;;5073423;28;20025;-76
2023/08/31 09:58:32;;;;;;;3.03;0.60;;;21.70;84.30;;;;;;5073517;28;20040;-78
2023/08/31 10:00:58;;;;;;;0.80;0.60;;;21.80;86.10;;;;;;5073055;28;20111;-75
2023/08/31 10:03:26;;;;;;;1.50;0.60;;;21.90;83.60;;;;;;5073009;28;20052;-75
2023/08/31 10:05:53;;;;;;;0.82;0.47;;;22.00;83.40;;;;;;5073568;28;20098;-75
2023/08/31 10:08:20;;;;;;;0.93;0.50;;;22.10;82.60;;;;;;5073203;28;20036;-75
2023/08/31 10:10:46;;;;;;;1.88;0.70;;;22.20;81.50;;;;;;5073436;28;20448;-77
2023/08/31 10:13:13;;;;;;;1.83;0.70;;;22.30;84.60;;;;;;5073256;28;20358;-75
2023/08/31 10:15:39;;;;;;;1.02;0.63;;;22.30;80.80;;;;;;5073123;28;20111;-75
2023/08/31 10:18:06;;;;;;;1.35;0.98;;;22.40;78.70;;;;;;5073260;28;20099;-76
2023/08/31 10:20:34;;;;;;;0.50;0.40;;;22.50;79.90;;;;;;5055531;28;20032;-76
2023/08/31 10:23:04;;;;;;;2.58;0.75;;;22.50;78.20;;;;;;5073129;28;20025;-76
2023/08/31 10:25:48;;;;;;;0.70;0.70;;;22.60;77.70;;;;;;5072913;28;20068;-76
2023/08/31 10:28:25;;;;;;;1.95;0.63;;;22.60;77.60;;;;;;5072892;28;20075;-76
2023/08/31 10:31:05;;;;;;;0.60;0.50;;;22.60;79.50;;;;;;5072929;28;20508;-75
2023/08/31 10:33:34;;;;;;;2.63;0.60;;;22.70;77.70;;;;;;5072763;28;20032;-75
2023/08/31 10:36:00;;;;;;;1.45;0.70;;;22.70;78.90;;;;;;5073007;28;20028;-75
2023/08/31 10:38:32;;;;;;;1.38;0.57;;;22.80;80.00;;;;;;5072875;28;20067;-72
2023/08/31 10:41:19;;;;;;;1.50;0.70;;;22.90;78.70;;;;;;5073069;28;20040;-74
2023/08/31 10:43:46;;;;;;;0.55;0.50;;;22.90;78.40;;;;;;5055081;28;20106;-74
2023/08/31 10:46:26;;;;;;;2.15;0.68;;;22.90;77.30;;;;;;5072810;28;20392;-74
2023/08/31 10:49:07;;;;;;;0.95;0.60;;;22.80;75.80;;;;;;5072887;28;20020;-73
2023/08/31 10:51:33;;;;;;;0.50;0.40;;;22.80;76.90;;;;;;5072631;28;20025;-73
2023/08/31 10:54:12;;;;;;;0.82;0.70;;;22.70;74.80;;;;;;5072570;28;20048;-74
2023/08/31 10:57:08;;;;;;;1.38;0.70;;;22.70;75.60;;;;;;5072672;28;20037;-72
2023/08/31 10:59:48;;;;;;;2.60;0.50;;;22.60;77.10;;;;;;5072580;28;20037;-74
2023/08/31 11:02:42;;;;;;;2.70;0.80;;;22.60;76.00;;;;;;5054697;28;20033;-73
2023/08/31 11:05:09;;;;;;;1.55;0.60;;;22.70;79.00;;;;;;5072563;28;20084;-73
2023/08/31 11:07:36;;;;;;;0.88;0.65;;;22.70;77.30;;;;;;5072766;28;20035;-73
2023/08/31 11:10:13;;;;;;;2.38;0.60;;;22.70;76.90;;;;;;5072570;28;20431;-74
2023/08/31 11:12:47;;;;;;;3.17;0.68;;;22.70;77.80;;;;;;5072433;28;20068;-74
2023/08/31 11:15:14;;;;;;;1.98;0.38;;;22.70;76.20;;;;;;5072429;28;20100;-74
2023/08/31 11:17:41;;;;;;;1.00;0.80;;;22.70;75.40;;;;;;5075740;28;20090;-74
2023/08/31 11:20:09;;;;;;;0.70;0.60;;;22.70;74.30;;;;;;5076437;28;20059;-73
2023/08/31 11:22:39;;;;;;;0.77;0.60;;;22.70;77.30;;;;;;5076555;28;20029;-74
2023/08/31 11:25:05;;;;;;;1.40;0.60;;;22.80;74.90;;;;;;5058550;28;20079;-74
2023/08/31 11:27:31;;;;;;;1.35;0.80;;;22.80;76.30;;;;;;5076262;28;20028;-75
2023/08/31 11:29:56;;;;;;;1.55;0.70;;;22.80;77.90;;;;;;5076545;28;20037;-74
2023/08/31 11:32:25;;;;;;;3.88;0.70;;;22.80;77.20;;;;;;5076033;28;20055;-73
2023/08/31 11:34:51;;;;;;;1.02;0.45;;;22.80;78.20;;;;;;5076187;28;20391;-73
2023/08/31 11:37:19;;;;;;;1.00;0.80;;;22.80;79.20;;;;;;5076055;28;20044;-73
2023/08/31 11:39:52;;;;;;;1.30;0.55;;;22.90;75.60;;;;;;5076155;28;20116;-74
2023/08/31 11:42:20;;;;;;;0.93;0.50;;;22.90;76.70;;;;;;5075836;28;20044;-74
2023/08/31 11:44:51;;;;;;;2.42;0.57;;;22.90;78.80;;;;;;5076024;28;20037;-74
2023/08/31 11:47:17;;;;;;;0.82;0.70;;;22.90;79.10;;;;;;5076016;28;20032;-74
2023/08/31 11:49:45;;;;;;;2.10;0.75;;;23.00;80.60;;;;;;5076041;28;20085;-73
2023/08/31 11:52:12;;;;;;;1.90;0.90;;;22.90;79.40;;;;;;5075635;28;20376;-74
2023/08/31 11:54:41;;;;;;;1.40;0.90;;;22.90;79.40;;;;;;5075562;28;20502;-73
2023/08/31 11:57:09;;;;;;;1.83;0.90;;;23.00;79.20;;;;;;5075826;28;20130;-74
2023/08/31 11:59:36;;;;;;;4.05;0.90;;;23.00;79.80;;;;;;5075667;28;20029;-74
2023/08/31 12:02:05;;;;;;;6.53;0.60;;;23.10;80.90;;;;;;5075527;28;20179;-73
2023/08/31 12:04:31;;;;;;;4.53;0.65;;;23.10;78.30;;;;;;5072017;28;20052;-73
2023/08/31 12:07:06;;;;;;;2.05;0.70;;;23.10;79.00;;;;;;5073041;28;20048;-73
2023/08/31 12:09:32;;;;;;;1.00;0.70;;;23.10;79.80;;;;;;5073716;28;20111;-72
2023/08/31 12:11:58;;;;;;;0.70;0.50;;;23.10;79.10;;;;;;5057277;28;20052;-74
2023/08/31 12:14:26;;;;;;;1.50;0.70;;;23.00;78.70;;;;;;5075341;28;20040;-74
2023/08/31 12:17:00;;;;;;;1.30;0.47;;;23.00;79.20;;;;;;5075417;28;20111;-73
2023/08/31 12:19:29;;;;;;;1.40;0.50;;;22.90;77.80;;;;;;5075029;28;20488;-72
2023/08/31 12:21:55;;;;;;;3.80;0.68;;;22.80;77.70;;;;;;5057110;28;20486;-74
2023/08/31 12:24:23;;;;;;;0.50;0.50;;;22.80;77.60;;;;;;5075064;28;20044;-74
2023/08/31 12:26:49;;;;;;;2.33;0.50;;;22.70;76.10;;;;;;5074900;28;20530;-72
2023/08/31 12:29:15;;;;;;;2.75;0.50;;;22.70;75.10;;;;;;5074903;28;20032;-73
2023/08/31 12:31:41;;;;;;;2.00;1.08;;;22.60;74.50;;;;;;5056845;28;20036;-73
2023/08/31 12:34:06;;;;;;;1.95;0.60;;;22.60;75.10;;;;;;5074613;28;20037;-73
2023/08/31 12:36:38;;;;;;;6.40;0.75;;;22.60;76.50;;;;;;5074828;28;20082;-72
2023/08/31 12:39:06;;;;;;;3.83;0.47;;;22.60;76.90;;;;;;5056642;28;20025;-73
2023/08/31 12:41:33;;;;;;;3.30;0.57;;;22.50;78.00;;;;;;5072555;28;20053;-73
2023/08/31 12:43:59;;;;;;;0.40;0.40;;;22.50;79.30;;;;;;5073133;28;20503;-73
2023/08/31 12:46:25;;;;;;;2.10;0.50;;;22.50;79.80;;;;;;5073235;28;20031;-73